sensor_id;sensor_type;location;lat;lon;timestamp;temperature;humidity
47414;DHT22;33163;0.000;0.000;2023-05-24T00:01:12;20.20;57.80
47414;DHT22;33163;0.000;0.000;2023-05-24T00:03:40;20.20;57.90
47414;DHT22;33163;0.000;0.000;2023-05-24T00:06:11;20.10;57.80
47414;DHT22;33163;0.000;0.000;2023-05-24T00:08:38;20.10;57.70
47414;DHT22;33163;0.000;0.000;2023-05-24T00:11:04;20.10;57.80
47414;DHT22;33163;0.000;0.000;2023-05-24T00:13:31;20.10;57.60
47414;DHT22;33163;0.000;0.000;2023-05-24T00:15:59;20.10;57.70
47414;DHT22;33163;0.000;0.000;2023-05-24T00:18:26;20.10;57.60
47414;DHT22;33163;0.000;0.000;2023-05-24T00:20:55;20.10;57.70
47414;DHT22;33163;0.000;0.000;2023-05-24T00:23:22;20.10;57.60
47414;DHT22;33163;0.000;0.000;2023-05-24T00:25:50;20.10;57.60
47414;DHT22;33163;0.000;0.000;2023-05-24T00:28:16;20.10;57.60
47414;DHT22;33163;0.000;0.000;2023-05-24T00:30:43;20.10;57.70
47414;DHT22;33163;0.000;0.000;2023-05-24T00:33:11;20.10;57.80
47414;DHT22;33163;0.000;0.000;2023-05-24T00:35:38;20.10;57.70
47414;DHT22;33163;0.000;0.000;2023-05-24T00:38:05;20.00;57.60
47414;DHT22;33163;0.000;0.000;2023-05-24T00:40:31;20.00;57.70
47414;DHT22;33163;0.000;0.000;2023-05-24T00:42:58;20.00;57.60
47414;DHT22;33163;0.000;0.000;2023-05-24T00:45:25;20.00;57.70
47414;DHT22;33163;0.000;0.000;2023-05-24T00:47:52;20.00;57.70
47414;DHT22;33163;0.000;0.000;2023-05-24T00:50:20;20.00;57.60
47414;DHT22;33163;0.000;0.000;2023-05-24T00:52:48;20.00;57.80
47414;DHT22;33163;0.000;0.000;2023-05-24T00:55:16;20.00;57.60
47414;DHT22;33163;0.000;0.000;2023-05-24T00:57:43;20.00;57.60
47414;DHT22;33163;0.000;0.000;2023-05-24T01:00:11;20.00;57.50
47414;DHT22;33163;0.000;0.000;2023-05-24T01:02:38;20.00;57.60
47414;DHT22;33163;0.000;0.000;2023-05-24T01:05:06;20.00;57.60
47414;DHT22;33163;0.000;0.000;2023-05-24T01:07:40;20.00;57.60
47414;DHT22;33163;0.000;0.000;2023-05-24T01:10:16;20.00;57.50
47414;DHT22;33163;0.000;0.000;2023-05-24T01:12:55;20.00;57.50
47414;DHT22;33163;0.000;0.000;2023-05-24T01:15:27;19.90;57.50
47414;DHT22;33163;0.000;0.000;2023-05-24T01:18:04;20.00;57.40
47414;DHT22;33163;0.000;0.000;2023-05-24T01:20:33;20.00;57.50
47414;DHT22;33163;0.000;0.000;2023-05-24T01:23:30;20.00;57.30
47414;DHT22;33163;0.000;0.000;2023-05-24T01:26:18;19.90;57.10
47414;DHT22;33163;0.000;0.000;2023-05-24T01:28:49;19.90;57.30
47414;DHT22;33163;0.000;0.000;2023-05-24T01:31:17;19.90;57.40
47414;DHT22;33163;0.000;0.000;2023-05-24T01:33:44;19.90;57.50
47414;DHT22;33163;0.000;0.000;2023-05-24T01:36:11;19.90;57.30
47414;DHT22;33163;0.000;0.000;2023-05-24T01:38:38;19.90;57.30
47414;DHT22;33163;0.000;0.000;2023-05-24T01:41:13;19.90;57.30
47414;DHT22;33163;0.000;0.000;2023-05-24T01:43:51;19.90;57.40
47414;DHT22;33163;0.000;0.000;2023-05-24T01:46:24;19.90;57.30
47414;DHT22;33163;0.000;0.000;2023-05-24T01:49:01;19.90;57.30
47414;DHT22;33163;0.000;0.000;2023-05-24T01:51:32;19.90;57.40
47414;DHT22;33163;0.000;0.000;2023-05-24T01:54:03;19.90;57.30
47414;DHT22;33163;0.000;0.000;2023-05-24T01:56:30;19.90;57.30
47414;DHT22;33163;0.000;0.000;2023-05-24T01:58:59;19.90;57.30
47414;DHT22;33163;0.000;0.000;2023-05-24T02:01:27;19.90;57.30
47414;DHT22;33163;0.000;0.000;2023-05-24T02:03:54;19.80;57.30
47414;DHT22;33163;0.000;0.000;2023-05-24T02:06:21;19.80;57.20
47414;DHT22;33163;0.000;0.000;2023-05-24T02:08:47;19.80;57.30
47414;DHT22;33163;0.000;0.000;2023-05-24T02:11:14;19.80;57.30
47414;DHT22;33163;0.000;0.000;2023-05-24T02:13:41;19.80;57.20
47414;DHT22;33163;0.000;0.000;2023-05-24T02:16:09;19.80;57.20
47414;DHT22;33163;0.000;0.000;2023-05-24T02:18:36;19.80;57.10
47414;DHT22;33163;0.000;0.000;2023-05-24T02:21:03;19.80;57.20
47414;DHT22;33163;0.000;0.000;2023-05-24T02:23:30;19.80;57.20
47414;DHT22;33163;0.000;0.000;2023-05-24T02:25:57;19.80;57.10
47414;DHT22;33163;0.000;0.000;2023-05-24T02:28:23;19.80;57.10
47414;DHT22;33163;0.000;0.000;2023-05-24T02:30:50;19.80;57.20
47414;DHT22;33163;0.000;0.000;2023-05-24T02:33:18;19.80;57.20
47414;DHT22;33163;0.000;0.000;2023-05-24T02:35:45;19.70;57.00
47414;DHT22;33163;0.000;0.000;2023-05-24T02:38:12;19.70;57.20
47414;DHT22;33163;0.000;0.000;2023-05-24T02:40:39;19.70;57.20
47414;DHT22;33163;0.000;0.000;2023-05-24T02:43:05;19.70;57.20
47414;DHT22;33163;0.000;0.000;2023-05-24T02:45:34;19.70;57.20
47414;DHT22;33163;0.000;0.000;2023-05-24T02:48:01;19.70;57.20
47414;DHT22;33163;0.000;0.000;2023-05-24T02:50:29;19.80;57.20
47414;DHT22;33163;0.000;0.000;2023-05-24T02:52:55;19.70;57.20
47414;DHT22;33163;0.000;0.000;2023-05-24T02:55:22;19.80;57.10
47414;DHT22;33163;0.000;0.000;2023-05-24T02:57:49;19.70;57.20
47414;DHT22;33163;0.000;0.000;2023-05-24T03:00:16;19.70;57.10
47414;DHT22;33163;0.000;0.000;2023-05-24T03:02:43;19.70;57.10
47414;DHT22;33163;0.000;0.000;2023-05-24T03:05:12;19.70;57.20
47414;DHT22;33163;0.000;0.000;2023-05-24T03:07:40;19.70;57.20
47414;DHT22;33163;0.000;0.000;2023-05-24T03:10:07;19.70;57.20
47414;DHT22;33163;0.000;0.000;2023-05-24T03:12:34;19.70;57.30
47414;DHT22;33163;0.000;0.000;2023-05-24T03:15:01;19.70;57.20
47414;DHT22;33163;0.000;0.000;2023-05-24T03:17:28;19.70;57.10
47414;DHT22;33163;0.000;0.000;2023-05-24T03:19:55;19.70;57.20
47414;DHT22;33163;0.000;0.000;2023-05-24T03:22:21;19.70;57.10
47414;DHT22;33163;0.000;0.000;2023-05-24T03:24:49;19.70;57.10
47414;DHT22;33163;0.000;0.000;2023-05-24T03:27:16;19.70;57.30
47414;DHT22;33163;0.000;0.000;2023-05-24T03:29:43;19.70;57.20
47414;DHT22;33163;0.000;0.000;2023-05-24T03:32:09;19.60;57.10
47414;DHT22;33163;0.000;0.000;2023-05-24T03:34:36;19.60;57.10
47414;DHT22;33163;0.000;0.000;2023-05-24T03:37:03;19.70;57.30
47414;DHT22;33163;0.000;0.000;2023-05-24T03:39:30;19.60;57.20
47414;DHT22;33163;0.000;0.000;2023-05-24T03:41:58;19.60;57.20
47414;DHT22;33163;0.000;0.000;2023-05-24T03:44:25;19.60;57.10
47414;DHT22;33163;0.000;0.000;2023-05-24T03:46:52;19.60;57.20
47414;DHT22;33163;0.000;0.000;2023-05-24T03:49:19;19.60;57.20
47414;DHT22;33163;0.000;0.000;2023-05-24T03:51:45;19.60;57.20
47414;DHT22;33163;0.000;0.000;2023-05-24T03:54:12;19.60;57.30
47414;DHT22;33163;0.000;0.000;2023-05-24T03:56:39;19.60;57.30
47414;DHT22;33163;0.000;0.000;2023-05-24T03:59:07;19.60;57.30
47414;DHT22;33163;0.000;0.000;2023-05-24T04:01:34;19.60;57.40
47414;DHT22;33163;0.000;0.000;2023-05-24T04:04:01;19.60;57.40
47414;DHT22;33163;0.000;0.000;2023-05-24T04:06:28;19.60;57.30
47414;DHT22;33163;0.000;0.000;2023-05-24T04:08:55;19.60;57.30
47414;DHT22;33163;0.000;0.000;2023-05-24T04:11:22;19.60;57.30
47414;DHT22;33163;0.000;0.000;2023-05-24T04:13:53;19.60;57.40
47414;DHT22;33163;0.000;0.000;2023-05-24T04:16:22;19.60;57.30
47414;DHT22;33163;0.000;0.000;2023-05-24T04:18:50;19.50;57.20
47414;DHT22;33163;0.000;0.000;2023-05-24T04:21:17;19.60;57.30
47414;DHT22;33163;0.000;0.000;2023-05-24T04:23:44;19.50;57.30
47414;DHT22;33163;0.000;0.000;2023-05-24T04:26:10;19.50;57.40
47414;DHT22;33163;0.000;0.000;2023-05-24T04:28:37;19.60;57.40
47414;DHT22;33163;0.000;0.000;2023-05-24T04:31:04;19.50;57.30
47414;DHT22;33163;0.000;0.000;2023-05-24T04:33:32;19.60;57.50
47414;DHT22;33163;0.000;0.000;2023-05-24T04:35:59;19.50;57.50
47414;DHT22;33163;0.000;0.000;2023-05-24T04:38:26;19.50;57.40
47414;DHT22;33163;0.000;0.000;2023-05-24T04:40:56;19.50;57.40
47414;DHT22;33163;0.000;0.000;2023-05-24T04:43:23;19.50;57.50
47414;DHT22;33163;0.000;0.000;2023-05-24T04:45:51;19.50;57.60
47414;DHT22;33163;0.000;0.000;2023-05-24T04:48:18;19.60;57.60
47414;DHT22;33163;0.000;0.000;2023-05-24T04:50:47;19.50;57.60
47414;DHT22;33163;0.000;0.000;2023-05-24T04:53:13;19.50;57.60
47414;DHT22;33163;0.000;0.000;2023-05-24T04:55:41;19.50;57.60
47414;DHT22;33163;0.000;0.000;2023-05-24T04:58:08;19.60;57.80
47414;DHT22;33163;0.000;0.000;2023-05-24T05:00:35;19.50;57.70
47414;DHT22;33163;0.000;0.000;2023-05-24T05:03:02;19.50;57.70
47414;DHT22;33163;0.000;0.000;2023-05-24T05:05:29;19.50;57.80
47414;DHT22;33163;0.000;0.000;2023-05-24T05:07:57;19.50;57.80
47414;DHT22;33163;0.000;0.000;2023-05-24T05:10:24;19.60;57.80
47414;DHT22;33163;0.000;0.000;2023-05-24T05:12:51;19.50;57.80
47414;DHT22;33163;0.000;0.000;2023-05-24T05:15:19;19.50;57.80
47414;DHT22;33163;0.000;0.000;2023-05-24T05:17:46;19.50;58.50
47414;DHT22;33163;0.000;0.000;2023-05-24T05:20:13;19.50;57.80
47414;DHT22;33163;0.000;0.000;2023-05-24T05:22:44;19.50;57.90
47414;DHT22;33163;0.000;0.000;2023-05-24T05:25:12;19.50;57.80
47414;DHT22;33163;0.000;0.000;2023-05-24T05:27:39;19.50;57.80
47414;DHT22;33163;0.000;0.000;2023-05-24T05:30:07;19.50;57.80
47414;DHT22;33163;0.000;0.000;2023-05-24T05:32:34;19.50;57.80
47414;DHT22;33163;0.000;0.000;2023-05-24T05:35:01;19.60;57.90
47414;DHT22;33163;0.000;0.000;2023-05-24T05:37:28;19.60;57.90
47414;DHT22;33163;0.000;0.000;2023-05-24T05:39:55;19.60;57.90
47414;DHT22;33163;0.000;0.000;2023-05-24T05:42:23;19.60;57.90
47414;DHT22;33163;0.000;0.000;2023-05-24T05:44:50;19.50;57.90
47414;DHT22;33163;0.000;0.000;2023-05-24T05:47:17;19.50;57.90
47414;DHT22;33163;0.000;0.000;2023-05-24T05:49:44;19.60;58.00
47414;DHT22;33163;0.000;0.000;2023-05-24T05:52:11;19.50;57.90
47414;DHT22;33163;0.000;0.000;2023-05-24T05:54:37;19.50;57.90
47414;DHT22;33163;0.000;0.000;2023-05-24T05:57:04;19.50;57.90
47414;DHT22;33163;0.000;0.000;2023-05-24T05:59:34;19.50;58.00
47414;DHT22;33163;0.000;0.000;2023-05-24T06:02:01;19.60;58.10
47414;DHT22;33163;0.000;0.000;2023-05-24T06:04:27;19.50;58.00
47414;DHT22;33163;0.000;0.000;2023-05-24T06:06:54;19.50;58.10
47414;DHT22;33163;0.000;0.000;2023-05-24T06:09:21;19.50;58.10
47414;DHT22;33163;0.000;0.000;2023-05-24T06:11:48;19.50;58.20
47414;DHT22;33163;0.000;0.000;2023-05-24T06:14:15;19.60;58.40
47414;DHT22;33163;0.000;0.000;2023-05-24T06:16:44;19.50;58.40
47414;DHT22;33163;0.000;0.000;2023-05-24T06:19:12;19.60;58.70
47414;DHT22;33163;0.000;0.000;2023-05-24T06:21:39;19.60;58.90
47414;DHT22;33163;0.000;0.000;2023-05-24T06:24:12;19.60;59.00
47414;DHT22;33163;0.000;0.000;2023-05-24T06:26:39;19.60;59.10
47414;DHT22;33163;0.000;0.000;2023-05-24T06:29:06;19.60;59.80
47414;DHT22;33163;0.000;0.000;2023-05-24T06:31:33;19.60;59.20
47414;DHT22;33163;0.000;0.000;2023-05-24T06:34:02;19.60;59.50
47414;DHT22;33163;0.000;0.000;2023-05-24T06:36:28;19.60;59.60
47414;DHT22;33163;0.000;0.000;2023-05-24T06:38:58;19.60;59.70
47414;DHT22;33163;0.000;0.000;2023-05-24T06:41:25;19.70;59.80
47414;DHT22;33163;0.000;0.000;2023-05-24T06:43:52;19.70;60.00
47414;DHT22;33163;0.000;0.000;2023-05-24T06:46:19;19.70;60.00
47414;DHT22;33163;0.000;0.000;2023-05-24T06:48:46;19.70;60.10
47414;DHT22;33163;0.000;0.000;2023-05-24T06:51:14;19.70;60.20
47414;DHT22;33163;0.000;0.000;2023-05-24T06:53:40;19.70;60.20
47414;DHT22;33163;0.000;0.000;2023-05-24T06:56:07;19.70;60.10
47414;DHT22;33163;0.000;0.000;2023-05-24T06:58:34;19.70;60.00
47414;DHT22;33163;0.000;0.000;2023-05-24T07:01:01;19.70;60.00
47414;DHT22;33163;0.000;0.000;2023-05-24T07:03:29;19.70;59.90
47414;DHT22;33163;0.000;0.000;2023-05-24T07:05:56;19.70;59.80
47414;DHT22;33163;0.000;0.000;2023-05-24T07:08:25;19.70;59.80
47414;DHT22;33163;0.000;0.000;2023-05-24T07:10:52;19.80;59.70
47414;DHT22;33163;0.000;0.000;2023-05-24T07:13:19;19.70;59.60
47414;DHT22;33163;0.000;0.000;2023-05-24T07:15:46;19.70;59.50
47414;DHT22;33163;0.000;0.000;2023-05-24T07:18:13;19.70;59.30
47414;DHT22;33163;0.000;0.000;2023-05-24T07:20:40;19.80;59.30
47414;DHT22;33163;0.000;0.000;2023-05-24T07:23:06;19.80;59.20
47414;DHT22;33163;0.000;0.000;2023-05-24T07:25:34;19.80;59.20
47414;DHT22;33163;0.000;0.000;2023-05-24T07:28:02;19.80;59.20
47414;DHT22;33163;0.000;0.000;2023-05-24T07:30:28;19.80;59.20
47414;DHT22;33163;0.000;0.000;2023-05-24T07:32:55;19.80;59.20
47414;DHT22;33163;0.000;0.000;2023-05-24T07:35:22;19.90;59.10
47414;DHT22;33163;0.000;0.000;2023-05-24T07:37:49;19.90;59.00
47414;DHT22;33163;0.000;0.000;2023-05-24T07:40:16;19.90;58.90
47414;DHT22;33163;0.000;0.000;2023-05-24T07:42:44;20.00;59.10
47414;DHT22;33163;0.000;0.000;2023-05-24T07:45:12;19.90;59.10
47414;DHT22;33163;0.000;0.000;2023-05-24T07:47:39;20.00;59.10
47414;DHT22;33163;0.000;0.000;2023-05-24T07:50:06;20.00;59.20
47414;DHT22;33163;0.000;0.000;2023-05-24T07:52:33;20.00;59.20
47414;DHT22;33163;0.000;0.000;2023-05-24T07:55:00;20.00;59.30
47414;DHT22;33163;0.000;0.000;2023-05-24T07:57:27;20.00;59.20
47414;DHT22;33163;0.000;0.000;2023-05-24T07:59:55;20.00;59.30
47414;DHT22;33163;0.000;0.000;2023-05-24T08:02:22;20.00;59.30
47414;DHT22;33163;0.000;0.000;2023-05-24T08:04:49;20.00;59.20
47414;DHT22;33163;0.000;0.000;2023-05-24T08:07:16;20.00;59.20
47414;DHT22;33163;0.000;0.000;2023-05-24T08:09:43;20.10;59.20
47414;DHT22;33163;0.000;0.000;2023-05-24T08:12:09;20.10;59.20
47414;DHT22;33163;0.000;0.000;2023-05-24T08:14:36;20.10;59.10
47414;DHT22;33163;0.000;0.000;2023-05-24T08:17:04;20.10;59.10
47414;DHT22;33163;0.000;0.000;2023-05-24T08:19:31;20.10;59.10
47414;DHT22;33163;0.000;0.000;2023-05-24T08:22:00;20.10;59.10
47414;DHT22;33163;0.000;0.000;2023-05-24T08:24:29;20.10;59.10
47414;DHT22;33163;0.000;0.000;2023-05-24T08:26:56;20.20;59.10
47414;DHT22;33163;0.000;0.000;2023-05-24T08:29:23;20.20;59.00
47414;DHT22;33163;0.000;0.000;2023-05-24T08:31:50;20.30;59.00
47414;DHT22;33163;0.000;0.000;2023-05-24T08:34:18;20.30;58.90
47414;DHT22;33163;0.000;0.000;2023-05-24T08:36:45;20.30;58.90
47414;DHT22;33163;0.000;0.000;2023-05-24T08:39:12;20.30;59.00
47414;DHT22;33163;0.000;0.000;2023-05-24T08:41:39;20.40;59.10
47414;DHT22;33163;0.000;0.000;2023-05-24T08:44:06;20.40;59.10
47414;DHT22;33163;0.000;0.000;2023-05-24T08:46:34;20.40;59.00
47414;DHT22;33163;0.000;0.000;2023-05-24T08:49:01;20.40;58.90
47414;DHT22;33163;0.000;0.000;2023-05-24T08:51:30;20.40;58.90
47414;DHT22;33163;0.000;0.000;2023-05-24T08:53:58;20.50;59.00
47414;DHT22;33163;0.000;0.000;2023-05-24T08:56:26;20.50;58.90
47414;DHT22;33163;0.000;0.000;2023-05-24T08:58:54;20.60;59.00
47414;DHT22;33163;0.000;0.000;2023-05-24T09:01:22;20.60;58.90
47414;DHT22;33163;0.000;0.000;2023-05-24T09:03:49;20.60;58.90
47414;DHT22;33163;0.000;0.000;2023-05-24T09:06:17;20.60;58.90
47414;DHT22;33163;0.000;0.000;2023-05-24T09:08:46;20.70;58.90
47414;DHT22;33163;0.000;0.000;2023-05-24T09:11:17;20.70;58.90
47414;DHT22;33163;0.000;0.000;2023-05-24T09:13:44;20.70;58.70
47414;DHT22;33163;0.000;0.000;2023-05-24T09:16:11;20.80;58.70
47414;DHT22;33163;0.000;0.000;2023-05-24T09:18:39;20.80;58.70
47414;DHT22;33163;0.000;0.000;2023-05-24T09:21:07;20.80;58.70
47414;DHT22;33163;0.000;0.000;2023-05-24T09:23:34;20.80;58.60
47414;DHT22;33163;0.000;0.000;2023-05-24T09:26:07;20.80;58.50
47414;DHT22;33163;0.000;0.000;2023-05-24T09:28:35;20.80;58.50
47414;DHT22;33163;0.000;0.000;2023-05-24T09:31:02;20.90;58.50
47414;DHT22;33163;0.000;0.000;2023-05-24T09:33:30;20.90;58.60
47414;DHT22;33163;0.000;0.000;2023-05-24T09:35:58;20.90;58.70
47414;DHT22;33163;0.000;0.000;2023-05-24T09:38:25;21.00;58.80
47414;DHT22;33163;0.000;0.000;2023-05-24T09:41:03;21.00;58.90
47414;DHT22;33163;0.000;0.000;2023-05-24T09:43:33;21.00;59.00
47414;DHT22;33163;0.000;0.000;2023-05-24T09:46:01;21.10;59.10
47414;DHT22;33163;0.000;0.000;2023-05-24T09:48:29;21.10;59.10
47414;DHT22;33163;0.000;0.000;2023-05-24T09:51:01;21.10;59.10
47414;DHT22;33163;0.000;0.000;2023-05-24T09:53:28;21.10;58.90
47414;DHT22;33163;0.000;0.000;2023-05-24T09:55:55;21.10;58.90
47414;DHT22;33163;0.000;0.000;2023-05-24T09:58:22;21.20;59.00
47414;DHT22;33163;0.000;0.000;2023-05-24T10:01:02;21.20;59.00
47414;DHT22;33163;0.000;0.000;2023-05-24T10:03:29;21.20;59.00
47414;DHT22;33163;0.000;0.000;2023-05-24T10:05:57;21.20;59.00
47414;DHT22;33163;0.000;0.000;2023-05-24T10:08:24;21.20;58.90
47414;DHT22;33163;0.000;0.000;2023-05-24T10:10:52;21.20;58.90
47414;DHT22;33163;0.000;0.000;2023-05-24T10:13:22;21.20;58.90
47414;DHT22;33163;0.000;0.000;2023-05-24T10:15:48;21.20;58.90
47414;DHT22;33163;0.000;0.000;2023-05-24T10:18:17;21.20;58.80
47414;DHT22;33163;0.000;0.000;2023-05-24T10:20:44;21.20;58.70
47414;DHT22;33163;0.000;0.000;2023-05-24T10:23:14;21.20;58.60
47414;DHT22;33163;0.000;0.000;2023-05-24T10:25:49;21.30;58.70
47414;DHT22;33163;0.000;0.000;2023-05-24T10:28:19;21.20;58.60
47414;DHT22;33163;0.000;0.000;2023-05-24T10:30:52;21.20;58.60
47414;DHT22;33163;0.000;0.000;2023-05-24T10:33:23;21.20;58.50
47414;DHT22;33163;0.000;0.000;2023-05-24T10:35:51;21.20;58.50
47414;DHT22;33163;0.000;0.000;2023-05-24T10:38:19;21.30;58.40
47414;DHT22;33163;0.000;0.000;2023-05-24T10:40:48;21.30;58.30
47414;DHT22;33163;0.000;0.000;2023-05-24T10:43:16;21.30;58.30
47414;DHT22;33163;0.000;0.000;2023-05-24T10:45:48;21.30;58.30
47414;DHT22;33163;0.000;0.000;2023-05-24T10:48:36;21.30;58.10
47414;DHT22;33163;0.000;0.000;2023-05-24T10:51:34;21.30;58.10
47414;DHT22;33163;0.000;0.000;2023-05-24T10:54:18;21.30;58.10
47414;DHT22;33163;0.000;0.000;2023-05-24T10:56:47;21.30;58.00
47414;DHT22;33163;0.000;0.000;2023-05-24T10:59:28;21.30;58.00
47414;DHT22;33163;0.000;0.000;2023-05-24T11:01:56;21.30;57.80
47414;DHT22;33163;0.000;0.000;2023-05-24T11:04:30;21.30;57.90
47414;DHT22;33163;0.000;0.000;2023-05-24T11:07:00;21.30;57.80
47414;DHT22;33163;0.000;0.000;2023-05-24T11:09:28;21.40;57.80
47414;DHT22;33163;0.000;0.000;2023-05-24T11:11:59;21.40;57.60
47414;DHT22;33163;0.000;0.000;2023-05-24T11:14:28;21.40;57.60
47414;DHT22;33163;0.000;0.000;2023-05-24T11:16:57;21.40;57.50
47414;DHT22;33163;0.000;0.000;2023-05-24T11:19:31;21.40;57.40
47414;DHT22;33163;0.000;0.000;2023-05-24T11:22:01;21.40;57.40
47414;DHT22;33163;0.000;0.000;2023-05-24T11:24:29;21.40;57.40
47414;DHT22;33163;0.000;0.000;2023-05-24T11:26:56;21.40;57.30
47414;DHT22;33163;0.000;0.000;2023-05-24T11:29:23;21.40;57.90
47414;DHT22;33163;0.000;0.000;2023-05-24T11:31:52;21.40;57.20
47414;DHT22;33163;0.000;0.000;2023-05-24T11:34:19;21.40;57.20
47414;DHT22;33163;0.000;0.000;2023-05-24T11:36:48;21.40;57.20
47414;DHT22;33163;0.000;0.000;2023-05-24T11:39:15;21.40;57.10
47414;DHT22;33163;0.000;0.000;2023-05-24T11:41:42;21.40;57.10
47414;DHT22;33163;0.000;0.000;2023-05-24T11:44:10;21.40;57.00
47414;DHT22;33163;0.000;0.000;2023-05-24T11:46:38;21.40;57.00
47414;DHT22;33163;0.000;0.000;2023-05-24T11:49:05;21.50;57.00
47414;DHT22;33163;0.000;0.000;2023-05-24T11:51:33;21.50;57.00
47414;DHT22;33163;0.000;0.000;2023-05-24T11:54:01;21.50;57.00
47414;DHT22;33163;0.000;0.000;2023-05-24T11:56:29;21.40;56.80
47414;DHT22;33163;0.000;0.000;2023-05-24T11:59:05;21.50;56.90
47414;DHT22;33163;0.000;0.000;2023-05-24T12:01:34;21.50;56.70
47414;DHT22;33163;0.000;0.000;2023-05-24T12:04:00;21.50;56.80
47414;DHT22;33163;0.000;0.000;2023-05-24T12:06:33;21.50;56.70
47414;DHT22;33163;0.000;0.000;2023-05-24T12:09:02;21.50;56.50
47414;DHT22;33163;0.000;0.000;2023-05-24T12:11:33;21.50;56.60
47414;DHT22;33163;0.000;0.000;2023-05-24T12:14:00;21.50;56.60
47414;DHT22;33163;0.000;0.000;2023-05-24T12:16:26;21.50;56.60
47414;DHT22;33163;0.000;0.000;2023-05-24T12:18:56;21.50;56.50
47414;DHT22;33163;0.000;0.000;2023-05-24T12:21:23;21.40;56.50
47414;DHT22;33163;0.000;0.000;2023-05-24T12:23:50;21.40;56.50
47414;DHT22;33163;0.000;0.000;2023-05-24T12:26:18;21.40;56.50
47414;DHT22;33163;0.000;0.000;2023-05-24T12:28:51;21.40;56.40
47414;DHT22;33163;0.000;0.000;2023-05-24T12:31:18;21.40;56.50
47414;DHT22;33163;0.000;0.000;2023-05-24T12:33:46;21.40;56.60
47414;DHT22;33163;0.000;0.000;2023-05-24T12:36:13;21.40;56.40
47414;DHT22;33163;0.000;0.000;2023-05-24T12:38:39;21.30;56.50
47414;DHT22;33163;0.000;0.000;2023-05-24T12:41:06;21.30;56.60
47414;DHT22;33163;0.000;0.000;2023-05-24T12:43:35;21.30;56.60
47414;DHT22;33163;0.000;0.000;2023-05-24T12:46:03;21.30;56.60
47414;DHT22;33163;0.000;0.000;2023-05-24T12:48:30;21.30;56.50
47414;DHT22;33163;0.000;0.000;2023-05-24T12:50:56;21.30;56.40
47414;DHT22;33163;0.000;0.000;2023-05-24T12:53:23;21.40;56.40
47414;DHT22;33163;0.000;0.000;2023-05-24T12:55:50;21.40;56.40
47414;DHT22;33163;0.000;0.000;2023-05-24T12:58:20;21.40;56.30
47414;DHT22;33163;0.000;0.000;2023-05-24T13:00:48;21.40;56.40
47414;DHT22;33163;0.000;0.000;2023-05-24T13:03:16;21.40;56.40
47414;DHT22;33163;0.000;0.000;2023-05-24T13:05:43;21.40;56.40
47414;DHT22;33163;0.000;0.000;2023-05-24T13:08:10;21.40;56.40
47414;DHT22;33163;0.000;0.000;2023-05-24T13:10:38;21.40;56.40
47414;DHT22;33163;0.000;0.000;2023-05-24T13:13:05;21.40;56.50
47414;DHT22;33163;0.000;0.000;2023-05-24T13:15:32;21.30;56.40
47414;DHT22;33163;0.000;0.000;2023-05-24T13:18:00;21.30;56.50
47414;DHT22;33163;0.000;0.000;2023-05-24T13:20:27;21.30;56.40
47414;DHT22;33163;0.000;0.000;2023-05-24T13:22:53;21.40;56.60
47414;DHT22;33163;0.000;0.000;2023-05-24T13:25:20;21.30;56.60
47414;DHT22;33163;0.000;0.000;2023-05-24T13:27:47;21.40;56.60
47414;DHT22;33163;0.000;0.000;2023-05-24T13:30:14;21.40;56.60
47414;DHT22;33163;0.000;0.000;2023-05-24T13:32:41;21.40;56.60
47414;DHT22;33163;0.000;0.000;2023-05-24T13:35:09;21.40;56.50
47414;DHT22;33163;0.000;0.000;2023-05-24T13:37:36;21.40;56.50
47414;DHT22;33163;0.000;0.000;2023-05-24T13:40:04;21.40;56.60
47414;DHT22;33163;0.000;0.000;2023-05-24T13:42:31;21.40;56.50
47414;DHT22;33163;0.000;0.000;2023-05-24T13:44:58;21.40;56.50
47414;DHT22;33163;0.000;0.000;2023-05-24T13:47:25;21.40;56.50
47414;DHT22;33163;0.000;0.000;2023-05-24T13:49:51;21.40;56.50
47414;DHT22;33163;0.000;0.000;2023-05-24T13:52:19;21.40;56.60
47414;DHT22;33163;0.000;0.000;2023-05-24T13:54:46;21.40;56.60
47414;DHT22;33163;0.000;0.000;2023-05-24T13:57:13;21.40;56.50
47414;DHT22;33163;0.000;0.000;2023-05-24T13:59:40;21.40;56.60
47414;DHT22;33163;0.000;0.000;2023-05-24T14:02:07;21.40;56.50
47414;DHT22;33163;0.000;0.000;2023-05-24T14:04:34;21.30;56.40
47414;DHT22;33163;0.000;0.000;2023-05-24T14:07:00;21.30;56.50
47414;DHT22;33163;0.000;0.000;2023-05-24T14:09:28;21.40;56.50
47414;DHT22;33163;0.000;0.000;2023-05-24T14:11:55;21.40;56.50
47414;DHT22;33163;0.000;0.000;2023-05-24T14:14:22;21.30;56.30
47414;DHT22;33163;0.000;0.000;2023-05-24T14:16:49;21.30;56.60
47414;DHT22;33163;0.000;0.000;2023-05-24T14:19:19;21.30;56.40
47414;DHT22;33163;0.000;0.000;2023-05-24T14:21:46;21.30;56.60
47414;DHT22;33163;0.000;0.000;2023-05-24T14:24:13;21.30;56.50
47414;DHT22;33163;0.000;0.000;2023-05-24T14:26:41;21.30;56.40
47414;DHT22;33163;0.000;0.000;2023-05-24T14:29:08;21.40;56.60
47414;DHT22;33163;0.000;0.000;2023-05-24T14:31:35;21.40;56.70
47414;DHT22;33163;0.000;0.000;2023-05-24T14:34:07;21.40;56.80
47414;DHT22;33163;0.000;0.000;2023-05-24T14:36:34;21.40;56.80
47414;DHT22;33163;0.000;0.000;2023-05-24T14:39:01;21.40;56.70
47414;DHT22;33163;0.000;0.000;2023-05-24T14:41:28;21.40;56.60
47414;DHT22;33163;0.000;0.000;2023-05-24T14:43:56;21.40;56.60
47414;DHT22;33163;0.000;0.000;2023-05-24T14:46:23;21.40;56.60
47414;DHT22;33163;0.000;0.000;2023-05-24T14:48:50;21.40;56.70
47414;DHT22;33163;0.000;0.000;2023-05-24T14:51:17;21.40;56.60
47414;DHT22;33163;0.000;0.000;2023-05-24T14:53:44;21.40;56.50
47414;DHT22;33163;0.000;0.000;2023-05-24T14:56:11;21.40;56.50
47414;DHT22;33163;0.000;0.000;2023-05-24T14:58:38;21.40;56.60
47414;DHT22;33163;0.000;0.000;2023-05-24T15:01:07;21.30;56.50
47414;DHT22;33163;0.000;0.000;2023-05-24T15:03:34;21.40;56.60
47414;DHT22;33163;0.000;0.000;2023-05-24T15:06:00;21.30;56.50
47414;DHT22;33163;0.000;0.000;2023-05-24T15:08:27;21.30;56.40
47414;DHT22;33163;0.000;0.000;2023-05-24T15:10:54;21.30;56.40
47414;DHT22;33163;0.000;0.000;2023-05-24T15:13:21;21.30;56.40
47414;DHT22;33163;0.000;0.000;2023-05-24T15:15:49;21.30;56.40
47414;DHT22;33163;0.000;0.000;2023-05-24T15:18:18;21.40;56.50
47414;DHT22;33163;0.000;0.000;2023-05-24T15:20:45;21.30;56.40
47414;DHT22;33163;0.000;0.000;2023-05-24T15:23:12;21.30;56.20
47414;DHT22;33163;0.000;0.000;2023-05-24T15:25:39;21.30;56.90
47414;DHT22;33163;0.000;0.000;2023-05-24T15:28:07;21.30;56.20
47414;DHT22;33163;0.000;0.000;2023-05-24T15:30:35;21.30;56.20
47414;DHT22;33163;0.000;0.000;2023-05-24T15:33:02;21.30;56.10
47414;DHT22;33163;0.000;0.000;2023-05-24T15:35:30;21.30;56.20
47414;DHT22;33163;0.000;0.000;2023-05-24T15:37:56;21.30;56.00
47414;DHT22;33163;0.000;0.000;2023-05-24T15:40:23;21.30;56.40
47414;DHT22;33163;0.000;0.000;2023-05-24T15:42:50;21.30;56.40
47414;DHT22;33163;0.000;0.000;2023-05-24T15:45:18;21.30;56.40
47414;DHT22;33163;0.000;0.000;2023-05-24T15:47:45;21.30;56.40
47414;DHT22;33163;0.000;0.000;2023-05-24T15:50:12;21.30;56.60